Mosby, Montana
Current Conditions -  °F | °C
As of 1:35 PM on Tuesday 21 Oct 2014 (Local Time) from KMVH Reporting Station
Clear Clear  
Wind Chill: 70°   Ceiling: Unl
Heat Index: 70°   Visibility: 10mi
Dew Point: 39°   Wind: 9mph
Humidity: 33%   Direction: 230°SW
Pressure: 29.69"   Gusts: NA
Location:  46.99°N, 107.89°W
Report Text: KMVH 211935Z AUTO 23008KT 10SM CLR 21/04 A2969 RMK A01
Loading
Personal Weather Stations






























Interactive Weather Map
Tropical Storm Tracking
New forecast layout! Learn more

10-Day Weather Forecast

Advertisements
Track Severe Weather on mobile